Time;durP1;ratioP1;P1;durP2;ratioP2;P2;SDS_P1;SDS_P2;PMS_P1;PMS_P2;Temp;Humidity;BMP_temperature;BMP_pressure;BME280_temperature;BME280_humidity;BME280_pressure;Samples;Min_cycle;Max_cycle;Signal;HPM_P1;HPM_P2
2023/08/24 00:01:47;;;;;;;13.43;6.70;;;19.70;99.90;;;;;;4097709;29;20034;-60
2023/08/24 00:03:48;;;;;;;7.43;5.93;;;19.70;99.90;;;;;;4100216;28;20043;-62
2023/08/24 00:05:49;;;;;;;9.10;6.35;;;19.60;99.90;;;;;;4097441;28;20028;-65
2023/08/24 00:07:52;;;;;;;9.07;6.28;;;19.60;99.90;;;;;;4098596;28;20059;-65
2023/08/24 00:09:53;;;;;;;8.10;5.82;;;19.50;99.90;;;;;;4109723;28;20039;-58
2023/08/24 00:11:55;;;;;;;10.55;7.03;;;19.50;99.90;;;;;;4112296;28;20093;-64
2023/08/24 00:13:56;;;;;;;12.75;7.20;;;19.50;99.90;;;;;;4106379;28;20050;-56
2023/08/24 00:15:57;;;;;;;11.90;6.88;;;19.40;99.90;;;;;;4097721;28;20042;-60
2023/08/24 00:17:58;;;;;;;12.02;7.38;;;19.40;99.90;;;;;;4111656;28;20374;-60
2023/08/24 00:20:00;;;;;;;9.63;6.32;;;19.40;99.90;;;;;;4112628;28;20109;-66
2023/08/24 00:22:01;;;;;;;10.18;7.07;;;19.40;99.90;;;;;;4114398;28;20483;-60
2023/08/24 00:24:03;;;;;;;12.50;7.72;;;19.40;99.90;;;;;;4103474;28;20039;-60
2023/08/24 00:26:04;;;;;;;10.43;6.80;;;19.40;99.90;;;;;;4098354;29;20027;-60
2023/08/24 00:28:05;;;;;;;10.70;6.80;;;19.40;99.90;;;;;;4100898;28;20085;-62
2023/08/24 00:30:08;;;;;;;9.43;6.95;;;19.40;99.90;;;;;;4111699;28;20444;-66
2023/08/24 00:32:09;;;;;;;12.20;6.50;;;19.40;99.90;;;;;;4113077;28;20038;-64
2023/08/24 00:34:10;;;;;;;10.05;6.53;;;19.40;99.90;;;;;;4102735;28;20028;-65
2023/08/24 00:36:11;;;;;;;11.25;6.20;;;19.40;99.90;;;;;;4097380;28;20050;-63
2023/08/24 00:38:12;;;;;;;10.57;6.28;;;19.40;99.90;;;;;;4101461;28;20019;-68
2023/08/24 00:40:13;;;;;;;10.63;6.32;;;19.40;99.90;;;;;;4099865;28;20090;-64
2023/08/24 00:42:15;;;;;;;10.25;6.70;;;19.40;99.90;;;;;;4101031;28;20400;-61
2023/08/24 00:44:17;;;;;;;7.30;6.60;;;19.30;99.90;;;;;;4108720;28;20031;-64
2023/08/24 00:46:18;;;;;;;8.77;6.65;;;19.30;99.90;;;;;;4104356;28;20093;-61
2023/08/24 00:48:25;;;;;;;10.20;6.35;;;19.30;99.90;;;;;;4109041;28;20723;-60
2023/08/24 00:50:26;;;;;;;8.30;6.18;;;19.30;99.90;;;;;;4096722;29;20078;-66
2023/08/24 00:52:31;;;;;;;8.85;5.82;;;19.20;99.90;;;;;;4097933;29;20035;-57
2023/08/24 00:54:32;;;;;;;11.73;6.43;;;19.20;99.90;;;;;;4096753;28;20035;-60
2023/08/24 00:56:33;;;;;;;9.82;6.40;;;19.20;99.90;;;;;;4097574;28;20115;-60
2023/08/24 00:58:34;;;;;;;12.73;6.07;;;19.10;99.90;;;;;;4109420;28;20047;-59
2023/08/24 01:00:37;;;;;;;10.75;6.32;;;19.10;99.90;;;;;;4097858;28;20090;-60
2023/08/24 01:02:38;;;;;;;12.60;6.88;;;19.10;99.90;;;;;;4096545;28;20036;-60
2023/08/24 01:04:42;;;;;;;7.97;6.57;;;19.10;99.90;;;;;;4097163;28;20141;-57
2023/08/24 01:06:43;;;;;;;9.00;6.28;;;19.10;99.90;;;;;;4107109;28;20023;-59
2023/08/24 01:08:45;;;;;;;8.80;6.53;;;19.10;99.90;;;;;;4111587;28;20034;-65
2023/08/24 01:11:13;;;;;;;8.52;5.97;;;19.10;99.90;;;;;;4104271;28;20392;-66
2023/08/24 01:13:21;;;;;;;7.20;5.53;;;19.10;99.90;;;;;;4097075;29;20110;-66
2023/08/24 01:15:31;;;;;;;5.30;4.78;;;19.20;99.90;;;;;;4096104;28;20431;-60
2023/08/24 01:17:33;;;;;;;6.47;5.32;;;19.20;99.90;;;;;;4080523;29;20032;-59
2023/08/24 01:19:39;;;;;;;8.27;5.97;;;19.30;99.90;;;;;;4098444;28;20199;-62
2023/08/24 01:21:41;;;;;;;9.88;6.18;;;19.30;99.90;;;;;;4097000;29;20027;-65
2023/08/24 01:23:55;;;;;;;6.70;5.45;;;19.30;99.90;;;;;;4096929;28;20090;-65
2023/08/24 01:26:14;;;;;;;8.05;6.10;;;19.30;99.90;;;;;;4096788;29;20130;-63
2023/08/24 01:28:17;;;;;;;12.13;6.35;;;19.30;99.90;;;;;;4097451;28;20091;-61
2023/08/24 01:30:19;;;;;;;12.32;6.10;;;19.30;99.90;;;;;;4107872;28;20142;-60
2023/08/24 01:32:20;;;;;;;9.93;6.15;;;19.40;99.90;;;;;;4110648;28;20047;-61
2023/08/24 01:34:21;;;;;;;8.13;6.13;;;19.40;99.90;;;;;;4111694;28;20495;-60
2023/08/24 01:36:24;;;;;;;7.70;4.68;;;19.40;99.90;;;;;;4112647;28;20030;-60
2023/08/24 01:38:26;;;;;;;9.05;6.22;;;19.40;99.90;;;;;;4109299;28;20109;-61
2023/08/24 01:40:34;;;;;;;9.63;7.07;;;19.40;99.90;;;;;;4110251;28;20034;-60
2023/08/24 01:42:39;;;;;;;6.90;6.10;;;19.40;99.90;;;;;;4111570;28;20201;-57
2023/08/24 01:44:42;;;;;;;8.50;6.57;;;19.40;99.90;;;;;;4110866;28;20066;-60
2023/08/24 01:46:45;;;;;;;7.93;5.75;;;19.40;99.90;;;;;;4110007;28;20441;-60
2023/08/24 01:48:46;;;;;;;8.88;6.82;;;19.40;99.90;;;;;;4097325;28;20126;-60
2023/08/24 01:50:49;;;;;;;9.48;5.85;;;19.50;99.90;;;;;;4111381;28;20157;-58
2023/08/24 01:52:50;;;;;;;8.00;6.32;;;19.40;99.90;;;;;;4112726;28;20117;-60
2023/08/24 01:54:52;;;;;;;9.02;5.72;;;19.50;99.90;;;;;;4111967;28;20554;-59
2023/08/24 01:56:53;;;;;;;8.85;6.03;;;19.50;99.90;;;;;;4112337;28;20112;-59
2023/08/24 01:58:54;;;;;;;11.10;7.05;;;19.50;99.90;;;;;;4099996;28;20101;-61
2023/08/24 02:00:55;;;;;;;10.25;7.70;;;19.50;99.90;;;;;;4112016;28;20093;-60
2023/08/24 02:02:57;;;;;;;11.30;7.70;;;19.50;99.90;;;;;;4096651;28;20376;-61
2023/08/24 02:04:58;;;;;;;12.95;7.68;;;19.40;99.90;;;;;;4096243;28;20416;-60
2023/08/24 02:06:59;;;;;;;10.80;8.27;;;19.40;99.90;;;;;;4095994;28;20039;-60
2023/08/24 02:09:00;;;;;;;10.70;7.70;;;19.40;99.90;;;;;;4099012;28;20031;-60
2023/08/24 02:11:01;;;;;;;11.25;7.60;;;19.40;99.90;;;;;;4111953;28;20467;-61
2023/08/24 02:13:03;;;;;;;13.05;7.53;;;19.40;99.90;;;;;;4104426;28;20325;-61
2023/08/24 02:15:04;;;;;;;16.02;7.70;;;19.40;99.90;;;;;;4110027;28;21899;-60
2023/08/24 02:17:05;;;;;;;11.20;7.38;;;19.40;99.90;;;;;;4098786;28;20039;-59
2023/08/24 02:19:07;;;;;;;17.92;8.27;;;19.30;99.90;;;;;;4112461;28;20042;-59
2023/08/24 02:21:15;;;;;;;12.20;7.40;;;19.30;99.90;;;;;;4095312;28;20046;-59
2023/08/24 02:23:17;;;;;;;11.82;7.53;;;19.30;99.90;;;;;;4080824;29;20032;-60
2023/08/24 02:25:18;;;;;;;11.88;7.30;;;19.30;99.90;;;;;;4084329;28;20479;-57
2023/08/24 02:27:19;;;;;;;9.50;6.18;;;19.30;99.90;;;;;;4100682;28;20054;-60
2023/08/24 02:29:21;;;;;;;11.98;6.85;;;19.30;99.90;;;;;;4092892;28;20051;-60
2023/08/24 02:31:22;;;;;;;9.75;6.45;;;19.30;99.90;;;;;;4112383;28;20078;-60
2023/08/24 02:33:23;;;;;;;9.70;6.55;;;19.20;99.90;;;;;;4105950;28;20027;-61
2023/08/24 02:35:24;;;;;;;14.45;7.03;;;19.20;99.90;;;;;;4096511;28;20031;-59
2023/08/24 02:37:25;;;;;;;9.88;6.72;;;19.20;99.90;;;;;;4095746;28;20027;-58
2023/08/24 02:39:26;;;;;;;11.95;7.32;;;19.20;99.90;;;;;;4101905;28;20195;-64
2023/08/24 02:41:28;;;;;;;11.48;6.75;;;19.20;99.90;;;;;;4112059;28;20042;-64
2023/08/24 02:43:29;;;;;;;14.95;6.75;;;19.20;99.90;;;;;;4109045;28;20039;-66
2023/08/24 02:45:30;;;;;;;11.65;7.18;;;19.20;99.90;;;;;;4097389;28;20106;-65
2023/08/24 02:47:32;;;;;;;10.80;6.47;;;19.10;99.90;;;;;;4108346;28;20089;-60
2023/08/24 02:49:33;;;;;;;8.30;6.05;;;19.10;99.90;;;;;;4111403;28;20513;-65
2023/08/24 02:51:35;;;;;;;9.85;7.40;;;19.10;99.90;;;;;;4107857;28;20063;-63
2023/08/24 02:53:36;;;;;;;8.02;6.45;;;19.10;99.90;;;;;;4109735;28;20055;-58
2023/08/24 02:55:37;;;;;;;13.07;6.68;;;19.10;99.90;;;;;;4110697;28;20047;-65
2023/08/24 02:57:39;;;;;;;11.32;6.25;;;19.10;99.90;;;;;;4096591;28;20051;-63
2023/08/24 02:59:43;;;;;;;11.10;6.05;;;19.10;99.90;;;;;;4098757;28;20134;-64
2023/08/24 03:01:44;;;;;;;9.35;6.32;;;19.10;99.90;;;;;;4095905;28;20090;-58
2023/08/24 03:03:45;;;;;;;10.57;7.38;;;19.10;99.90;;;;;;4096272;28;20074;-65
2023/08/24 03:05:57;;;;;;;9.38;7.30;;;19.00;99.90;;;;;;4103441;28;20055;-65
2023/08/24 03:07:59;;;;;;;11.60;7.65;;;19.10;99.90;;;;;;4096262;28;20074;-61
2023/08/24 03:10:00;;;;;;;9.73;7.57;;;19.00;99.90;;;;;;4097501;28;20039;-67
2023/08/24 03:12:02;;;;;;;11.50;8.18;;;19.00;99.90;;;;;;4095989;28;20043;-65
2023/08/24 03:14:03;;;;;;;11.25;7.22;;;19.00;99.90;;;;;;4099713;28;20066;-67
2023/08/24 03:16:06;;;;;;;13.90;7.72;;;19.00;99.90;;;;;;4096615;28;20083;-66
2023/08/24 03:18:07;;;;;;;12.13;7.65;;;19.00;99.90;;;;;;4095166;28;20420;-66
2023/08/24 03:20:10;;;;;;;12.52;7.53;;;19.00;99.90;;;;;;4106603;28;20545;-63
2023/08/24 03:22:12;;;;;;;10.32;6.90;;;19.00;99.90;;;;;;4109294;28;20596;-66
2023/08/24 03:24:13;;;;;;;10.10;6.47;;;19.00;99.90;;;;;;4111715;28;20027;-64
2023/08/24 03:26:16;;;;;;;10.13;6.80;;;19.00;99.90;;;;;;4110144;28;20109;-67
2023/08/24 03:28:17;;;;;;;9.68;6.07;;;18.90;99.90;;;;;;4111828;28;20082;-65
2023/08/24 03:30:18;;;;;;;7.85;5.75;;;18.90;99.90;;;;;;4101604;28;20433;-61
2023/08/24 03:32:19;;;;;;;7.43;5.45;;;18.80;99.90;;;;;;4109603;28;20086;-68
2023/08/24 03:34:21;;;;;;;8.60;5.47;;;18.80;99.90;;;;;;4108512;28;20125;-66
2023/08/24 03:36:22;;;;;;;9.15;5.57;;;18.70;99.90;;;;;;4105361;28;20034;-62
2023/08/24 03:38:23;;;;;;;10.20;6.50;;;18.70;99.90;;;;;;4110656;28;20039;-67
2023/08/24 03:40:24;;;;;;;10.05;6.75;;;18.80;99.90;;;;;;4101939;28;20035;-63
2023/08/24 03:42:25;;;;;;;11.23;7.30;;;18.80;99.90;;;;;;4111198;28;20038;-67
2023/08/24 03:44:26;;;;;;;12.32;7.38;;;18.80;99.90;;;;;;4101397;28;20039;-63
2023/08/24 03:46:28;;;;;;;12.90;9.02;;;18.90;99.90;;;;;;4098116;29;20035;-65
2023/08/24 03:48:29;;;;;;;12.63;8.35;;;18.90;99.90;;;;;;4101505;28;20094;-61
2023/08/24 03:50:30;;;;;;;12.75;8.38;;;18.90;99.90;;;;;;4110361;28;20043;-65
2023/08/24 03:52:31;;;;;;;11.85;9.60;;;19.00;99.90;;;;;;4100827;28;20035;-65
2023/08/24 03:54:33;;;;;;;12.88;9.43;;;19.00;99.90;;;;;;4097019;29;20039;-65
2023/08/24 03:56:34;;;;;;;14.70;8.82;;;19.10;99.90;;;;;;4097342;29;20039;-67
2023/08/24 03:58:35;;;;;;;12.38;9.02;;;19.10;99.90;;;;;;4098262;28;20449;-63
2023/08/24 04:00:39;;;;;;;12.45;7.90;;;19.10;99.90;;;;;;4113047;28;20035;-67
2023/08/24 04:02:43;;;;;;;15.20;11.95;;;19.10;99.90;;;;;;4104558;28;20031;-61
2023/08/24 04:04:46;;;;;;;20.25;12.38;;;19.10;99.90;;;;;;4111073;28;20047;-68
2023/08/24 04:06:49;;;;;;;19.52;9.88;;;19.10;99.90;;;;;;4105549;28;20047;-65
2023/08/24 04:08:50;;;;;;;16.27;10.32;;;19.00;99.90;;;;;;4109762;28;20051;-65
2023/08/24 04:10:51;;;;;;;19.42;10.15;;;19.00;99.90;;;;;;4113046;28;20035;-66
2023/08/24 04:12:53;;;;;;;17.50;10.68;;;19.00;99.90;;;;;;4101489;28;20105;-67
2023/08/24 04:14:54;;;;;;;21.40;9.80;;;19.00;99.90;;;;;;4102038;28;20031;-64
2023/08/24 04:16:55;;;;;;;19.90;11.25;;;19.00;99.90;;;;;;4100664;28;20039;-60
2023/08/24 04:18:56;;;;;;;19.88;11.77;;;19.00;99.90;;;;;;4098659;28;20028;-65
2023/08/24 04:20:58;;;;;;;23.65;12.27;;;18.90;99.90;;;;;;4100922;28;20039;-65
2023/08/24 04:22:59;;;;;;;27.17;14.20;;;19.00;99.90;;;;;;4103686;28;20070;-66
2023/08/24 04:25:00;;;;;;;16.95;9.43;;;19.00;99.90;;;;;;4097860;28;20082;-64
2023/08/24 04:27:01;;;;;;;16.52;8.63;;;18.90;99.90;;;;;;4095013;28;20086;-59
2023/08/24 04:29:02;;;;;;;16.27;9.52;;;19.00;99.90;;;;;;4100012;28;20035;-64
2023/08/24 04:31:03;;;;;;;16.80;9.73;;;18.90;99.90;;;;;;4103245;28;20487;-61
2023/08/24 04:33:05;;;;;;;14.30;9.35;;;18.90;99.90;;;;;;4096582;28;20110;-61
2023/08/24 04:35:07;;;;;;;18.60;10.20;;;18.90;99.90;;;;;;4103119;28;20035;-65
2023/08/24 04:37:08;;;;;;;20.95;10.07;;;18.90;99.90;;;;;;4101391;28;20097;-60
2023/08/24 04:39:10;;;;;;;23.75;12.88;;;18.90;99.90;;;;;;4100321;28;20543;-62
2023/08/24 04:41:12;;;;;;;31.92;11.85;;;18.90;99.90;;;;;;4105468;28;20043;-65
2023/08/24 04:43:13;;;;;;;24.30;11.50;;;18.90;99.90;;;;;;4081257;28;20038;-62
2023/08/24 04:45:18;;;;;;;24.08;11.70;;;18.90;99.90;;;;;;3975347;28;20157;-59
2023/08/24 04:47:19;;;;;;;23.40;11.98;;;19.00;99.90;;;;;;3956016;29;20027;-60
2023/08/24 04:49:28;;;;;;;27.75;12.50;;;19.00;99.90;;;;;;3975993;29;20093;-60
2023/08/24 04:51:29;;;;;;;26.92;12.15;;;19.00;99.90;;;;;;3961169;28;20145;-65
2023/08/24 04:53:30;;;;;;;27.88;12.45;;;19.00;99.90;;;;;;4018716;28;20047;-65
2023/08/24 04:55:32;;;;;;;21.40;10.85;;;19.00;99.90;;;;;;4096688;29;20106;-68
2023/08/24 04:57:33;;;;;;;27.15;12.82;;;19.00;99.90;;;;;;4096117;29;20031;-66
2023/08/24 04:59:34;;;;;;;21.75;11.60;;;19.10;99.90;;;;;;4097144;28;20051;-68
2023/08/24 05:01:35;;;;;;;30.88;14.82;;;19.10;99.90;;;;;;4106655;28;20047;-66
2023/08/24 05:03:36;;;;;;;32.83;13.82;;;19.10;99.90;;;;;;4113663;28;20078;-64
2023/08/24 05:05:37;;;;;;;24.58;13.13;;;19.10;99.90;;;;;;4103078;28;20055;-65
2023/08/24 05:07:39;;;;;;;31.25;13.10;;;19.10;99.90;;;;;;4099317;28;20110;-65
2023/08/24 05:09:40;;;;;;;32.40;14.00;;;19.20;99.90;;;;;;4098025;28;20047;-66
2023/08/24 05:11:41;;;;;;;30.05;16.58;;;19.20;99.90;;;;;;4097687;29;20038;-63
2023/08/24 05:13:42;;;;;;;38.05;16.67;;;19.30;99.90;;;;;;4097942;28;20097;-67
2023/08/24 05:15:43;;;;;;;43.22;18.48;;;19.40;99.90;;;;;;4109521;28;20035;-67
2023/08/24 05:17:45;;;;;;;41.67;19.20;;;19.40;99.90;;;;;;4112372;28;20019;-62
2023/08/24 05:19:46;;;;;;;42.50;20.33;;;19.40;99.90;;;;;;4112538;28;20043;-66
2023/08/24 05:21:47;;;;;;;35.17;18.45;;;19.50;99.90;;;;;;4097017;28;20082;-64
2023/08/24 05:23:48;;;;;;;28.88;15.70;;;19.40;99.90;;;;;;4096611;28;20435;-66
2023/08/24 05:25:49;;;;;;;25.13;14.02;;;19.50;99.90;;;;;;4097176;29;20027;-65
2023/08/24 05:27:50;;;;;;;20.38;13.02;;;19.60;99.90;;;;;;4096055;28;20047;-63
2023/08/24 05:29:52;;;;;;;25.10;15.98;;;19.60;99.90;;;;;;4102339;28;20039;-65
2023/08/24 05:31:53;;;;;;;25.45;15.73;;;19.60;99.90;;;;;;4102273;28;20459;-60
2023/08/24 05:33:54;;;;;;;35.38;24.27;;;19.60;99.90;;;;;;4111438;28;20570;-66
2023/08/24 05:35:55;;;;;;;27.15;17.10;;;19.50;99.90;;;;;;4108106;28;20043;-62
2023/08/24 05:37:56;;;;;;;29.55;17.08;;;19.60;99.90;;;;;;4108132;28;20043;-62
2023/08/24 05:39:59;;;;;;;38.08;20.13;;;19.60;99.90;;;;;;4095026;28;20055;-66
2023/08/24 05:42:00;;;;;;;38.63;20.98;;;19.60;99.90;;;;;;4097617;28;20035;-65
2023/08/24 05:44:01;;;;;;;47.05;23.70;;;19.60;99.90;;;;;;4103371;28;20035;-65
2023/08/24 05:46:03;;;;;;;45.33;22.65;;;19.60;99.90;;;;;;4102894;28;20030;-64
2023/08/24 05:48:04;;;;;;;50.80;25.15;;;19.60;99.90;;;;;;4111313;28;20047;-70
2023/08/24 05:50:06;;;;;;;45.17;24.23;;;19.60;99.90;;;;;;4110277;28;20063;-71
2023/08/24 05:52:07;;;;;;;46.30;25.55;;;19.70;99.90;;;;;;4112027;28;20039;-68
2023/08/24 05:54:08;;;;;;;48.05;24.77;;;19.70;99.90;;;;;;4111856;28;20031;-73
2023/08/24 05:56:09;;;;;;;50.03;24.70;;;19.90;99.90;;;;;;4110653;28;20015;-73
2023/08/24 05:58:11;;;;;;;53.08;24.70;;;19.90;99.90;;;;;;4109564;28;20086;-70
2023/08/24 06:00:12;;;;;;;47.75;25.55;;;19.90;99.90;;;;;;4112136;28;20047;-72
2023/08/24 06:02:14;;;;;;;47.55;24.20;;;20.00;99.90;;;;;;4111388;28;20038;-67
2023/08/24 06:04:15;;;;;;;46.95;25.00;;;20.00;99.90;;;;;;4097299;28;20042;-62
2023/08/24 06:06:16;;;;;;;45.90;24.63;;;20.20;99.90;;;;;;4095567;28;20093;-67
2023/08/24 06:08:17;;;;;;;53.92;26.85;;;20.10;99.90;;;;;;4097092;29;20031;-66
2023/08/24 06:10:18;;;;;;;44.63;25.80;;;20.20;99.90;;;;;;4102070;28;20031;-65
2023/08/24 06:12:19;;;;;;;45.65;24.95;;;20.30;99.90;;;;;;4095005;28;20513;-69
2023/08/24 06:14:21;;;;;;;45.95;25.98;;;20.30;99.90;;;;;;4096332;28;20039;-65
2023/08/24 06:16:22;;;;;;;39.47;24.23;;;20.50;99.90;;;;;;4096978;28;20138;-66
2023/08/24 06:18:23;;;;;;;46.05;25.90;;;20.50;99.90;;;;;;4095119;28;20087;-67
2023/08/24 06:20:24;;;;;;;45.50;24.40;;;20.60;99.90;;;;;;4096259;29;20138;-66
2023/08/24 06:22:26;;;;;;;44.58;23.80;;;20.60;99.90;;;;;;4096826;28;20043;-67
2023/08/24 06:24:27;;;;;;;44.10;23.05;;;20.70;99.90;;;;;;4094957;28;20102;-66
2023/08/24 06:26:28;;;;;;;43.33;23.35;;;20.90;99.90;;;;;;4096145;28;20086;-68
2023/08/24 06:28:29;;;;;;;39.25;22.77;;;21.00;99.90;;;;;;4095057;28;20106;-63
2023/08/24 06:30:36;;;;;;;35.40;20.75;;;21.20;99.90;;;;;;4095844;28;20365;-67
2023/08/24 06:32:38;;;;;;;38.78;21.70;;;21.20;99.90;;;;;;4095897;28;20066;-67
2023/08/24 06:34:39;;;;;;;32.15;20.10;;;21.00;99.90;;;;;;4104505;28;20074;-65
2023/08/24 06:36:41;;;;;;;35.08;20.17;;;21.00;99.90;;;;;;4110129;28;20454;-69
2023/08/24 06:38:42;;;;;;;37.40;19.15;;;21.10;99.90;;;;;;4094882;28;20039;-65
2023/08/24 06:40:43;;;;;;;38.00;18.25;;;21.20;99.90;;;;;;4095547;28;20047;-66
2023/08/24 06:42:44;;;;;;;31.00;18.33;;;21.20;99.90;;;;;;4096617;28;20428;-65
2023/08/24 06:44:45;;;;;;;30.23;18.13;;;21.30;99.90;;;;;;4094257;29;20470;-69
2023/08/24 06:46:46;;;;;;;28.60;18.15;;;21.20;99.90;;;;;;4097154;28;20075;-65
2023/08/24 06:48:48;;;;;;;30.20;17.00;;;21.30;99.90;;;;;;4096147;28;20051;-67
2023/08/24 06:50:49;;;;;;;28.88;17.05;;;21.40;99.90;;;;;;4097079;28;20094;-62
2023/08/24 06:52:50;;;;;;;30.10;18.75;;;21.40;99.90;;;;;;4094913;28;20466;-65
2023/08/24 06:54:53;;;;;;;31.58;19.63;;;21.20;99.90;;;;;;4095347;28;20043;-65
2023/08/24 06:56:54;;;;;;;32.17;18.40;;;21.30;99.90;;;;;;4095720;28;20133;-63
2023/08/24 06:58:55;;;;;;;34.67;17.77;;;21.40;99.90;;;;;;4093482;29;20458;-62
2023/08/24 07:00:57;;;;;;;28.63;17.00;;;21.70;99.90;;;;;;4095864;29;20423;-63
2023/08/24 07:02:59;;;;;;;26.65;16.38;;;21.90;99.90;;;;;;4095164;29;20086;-65
2023/08/24 07:05:01;;;;;;;23.63;16.45;;;22.20;99.90;;;;;;4097107;28;20086;-64
2023/08/24 07:07:02;;;;;;;23.35;16.42;;;22.70;99.90;;;;;;4110473;28;20039;-61
2023/08/24 07:09:06;;;;;;;26.15;15.68;;;23.20;99.90;;;;;;4112214;28;20082;-67
2023/08/24 07:11:07;;;;;;;21.20;15.52;;;23.60;99.90;;;;;;4111125;28;20090;-63
2023/08/24 07:13:09;;;;;;;20.98;14.60;;;23.80;99.90;;;;;;4106425;28;20070;-62
2023/08/24 07:15:11;;;;;;;22.38;14.23;;;24.30;99.90;;;;;;4095200;28;20135;-64
2023/08/24 07:17:12;;;;;;;23.98;14.43;;;24.60;99.90;;;;;;4105172;28;20030;-62
2023/08/24 07:19:13;;;;;;;23.55;13.60;;;24.90;99.90;;;;;;4113418;28;20055;-62
2023/08/24 07:21:14;;;;;;;19.50;13.70;;;25.30;99.90;;;;;;4113817;28;20043;-65
2023/08/24 07:23:16;;;;;;;18.38;12.88;;;25.30;99.90;;;;;;4113991;28;20173;-62
2023/08/24 07:25:17;;;;;;;16.38;12.13;;;25.30;99.90;;;;;;4114426;28;20439;-58
2023/08/24 07:27:18;;;;;;;21.92;13.05;;;25.30;99.90;;;;;;4113819;28;20062;-61
2023/08/24 07:29:22;;;;;;;17.65;12.80;;;25.50;99.90;;;;;;4114115;28;20094;-64
2023/08/24 07:31:24;;;;;;;18.08;12.30;;;25.50;99.90;;;;;;4113900;28;20055;-63
2023/08/24 07:33:25;;;;;;;19.50;11.88;;;25.80;99.90;;;;;;4113687;28;20031;-64
2023/08/24 07:35:26;;;;;;;17.55;11.85;;;25.70;99.90;;;;;;4114951;28;20030;-61
2023/08/24 07:37:27;;;;;;;17.30;12.35;;;25.80;99.90;;;;;;4113480;28;20496;-60
2023/08/24 07:39:29;;;;;;;21.63;11.95;;;25.80;99.90;;;;;;4114367;28;20047;-63
2023/08/24 07:41:30;;;;;;;15.02;10.93;;;26.00;99.90;;;;;;4113699;28;20046;-63
2023/08/24 07:43:32;;;;;;;16.35;10.75;;;26.20;99.90;;;;;;4115113;28;20031;-61
2023/08/24 07:45:33;;;;;;;13.93;10.20;;;26.30;99.90;;;;;;4113140;28;20030;-64
2023/08/24 07:47:35;;;;;;;12.40;9.05;;;26.60;99.90;;;;;;4114477;28;20488;-64
2023/08/24 07:49:36;;;;;;;12.75;9.73;;;26.90;99.90;;;;;;4113437;28;20467;-65
2023/08/24 07:51:37;;;;;;;13.73;9.75;;;27.30;99.90;;;;;;4114503;28;20301;-62
2023/08/24 07:53:39;;;;;;;10.07;7.97;;;27.50;99.90;;;;;;4113665;28;20031;-65
2023/08/24 07:55:40;;;;;;;13.80;9.00;;;27.30;99.90;;;;;;4114324;28;20026;-66
2023/08/24 07:57:41;;;;;;;12.77;8.18;;;27.50;99.90;;;;;;4112887;28;20051;-60
2023/08/24 07:59:42;;;;;;;12.38;8.93;;;27.60;99.90;;;;;;4113943;28;20062;-64
2023/08/24 08:01:44;;;;;;;12.50;9.20;;;27.80;99.90;;;;;;4113368;28;20030;-63
2023/08/24 08:03:45;;;;;;;13.48;8.90;;;27.60;99.90;;;;;;4111917;28;20042;-62
2023/08/24 08:05:47;;;;;;;11.35;8.63;;;27.20;99.90;;;;;;4114009;28;20089;-63
2023/08/24 08:07:48;;;;;;;11.55;8.95;;;26.90;99.90;;;;;;4113186;28;20452;-64
2023/08/24 08:09:50;;;;;;;14.02;8.68;;;26.80;99.90;;;;;;4114440;28;20398;-62
2023/08/24 08:11:51;;;;;;;12.10;8.00;;;26.80;99.90;;;;;;4111584;28;20506;-64
2023/08/24 08:13:52;;;;;;;12.43;9.05;;;27.20;99.90;;;;;;4114102;28;20022;-62
2023/08/24 08:15:54;;;;;;;9.80;8.00;;;27.20;99.90;;;;;;4112811;28;20495;-63
2023/08/24 08:17:55;;;;;;;12.20;8.68;;;27.10;99.90;;;;;;4113781;28;20058;-62
2023/08/24 08:19:57;;;;;;;11.50;7.65;;;27.20;99.90;;;;;;4113156;28;20097;-64
2023/08/24 08:21:58;;;;;;;10.95;7.65;;;27.40;99.90;;;;;;4114236;28;20062;-63
2023/08/24 08:23:59;;;;;;;11.27;7.63;;;27.50;99.90;;;;;;4112992;28;20107;-57
2023/08/24 08:26:00;;;;;;;9.77;7.38;;;27.40;99.90;;;;;;4113398;28;20541;-61
2023/08/24 08:28:01;;;;;;;11.80;7.18;;;27.40;99.90;;;;;;4111999;28;20039;-60
2023/08/24 08:30:04;;;;;;;9.50;8.07;;;27.40;99.90;;;;;;4113638;28;20093;-62
2023/08/24 08:32:05;;;;;;;11.25;7.05;;;27.40;99.90;;;;;;4113193;28;20035;-62
2023/08/24 08:34:07;;;;;;;13.77;7.50;;;27.40;99.90;;;;;;4112573;28;20043;-63
2023/08/24 08:36:08;;;;;;;10.43;7.38;;;27.50;99.90;;;;;;4111386;28;20043;-60
2023/08/24 08:38:09;;;;;;;8.80;7.63;;;27.70;99.90;;;;;;4112960;28;20482;-61
2023/08/24 08:40:11;;;;;;;9.20;6.78;;;27.70;99.90;;;;;;4113302;28;20042;-62
2023/08/24 08:42:14;;;;;;;9.25;7.00;;;27.80;99.90;;;;;;4113160;28;20070;-62
2023/08/24 08:44:15;;;;;;;10.38;6.93;;;27.80;99.90;;;;;;4113044;28;20480;-64
2023/08/24 08:46:17;;;;;;;10.45;6.10;;;27.90;99.90;;;;;;4110472;28;20471;-62
2023/08/24 08:48:18;;;;;;;6.82;5.78;;;28.10;99.90;;;;;;4113570;28;20034;-61
2023/08/24 08:50:20;;;;;;;8.50;5.80;;;28.40;99.90;;;;;;4112562;28;20026;-62
2023/08/24 08:52:21;;;;;;;9.60;5.97;;;28.50;99.90;;;;;;4113102;28;20034;-63
2023/08/24 08:54:22;;;;;;;6.30;5.65;;;28.20;99.90;;;;;;4112607;28;20131;-58
2023/08/24 08:56:24;;;;;;;11.30;6.30;;;28.20;99.90;;;;;;4112728;28;20495;-61
2023/08/24 08:58:27;;;;;;;5.80;5.18;;;28.10;99.90;;;;;;4112210;28;20097;-62
2023/08/24 09:00:29;;;;;;;7.68;5.03;;;28.10;99.90;;;;;;4112543;28;20034;-63
2023/08/24 09:02:31;;;;;;;6.70;5.10;;;28.20;99.90;;;;;;4111979;28;20026;-63
2023/08/24 09:04:33;;;;;;;6.30;4.85;;;28.30;99.90;;;;;;4113088;28;20372;-63
2023/08/24 09:06:35;;;;;;;5.28;4.00;;;28.50;99.90;;;;;;4112002;28;20043;-63
2023/08/24 09:08:37;;;;;;;5.82;4.53;;;28.60;99.90;;;;;;4112546;28;20062;-64
2023/08/24 09:10:38;;;;;;;6.32;4.03;;;28.50;99.90;;;;;;4112636;28;20039;-62
2023/08/24 09:12:39;;;;;;;6.55;4.47;;;28.30;99.90;;;;;;4112209;28;20458;-62
2023/08/24 09:14:41;;;;;;;6.75;4.07;;;28.10;99.90;;;;;;4112451;28;20034;-62
2023/08/24 09:16:42;;;;;;;5.15;4.60;;;28.00;99.90;;;;;;4112389;28;20542;-62
2023/08/24 09:18:47;;;;;;;5.30;4.22;;;28.00;99.90;;;;;;4113320;28;20031;-64
2023/08/24 09:20:48;;;;;;;4.70;4.03;;;28.20;99.90;;;;;;4111563;28;20066;-62
2023/08/24 09:22:49;;;;;;;4.22;3.75;;;28.20;99.90;;;;;;4112471;28;20113;-64
2023/08/24 09:24:50;;;;;;;4.10;3.60;;;28.20;99.90;;;;;;4111823;28;20435;-63
2023/08/24 09:26:51;;;;;;;3.47;3.17;;;28.10;99.90;;;;;;4112953;28;20043;-61
2023/08/24 09:28:52;;;;;;;5.57;3.20;;;28.00;99.90;;;;;;4096165;28;20176;-64
2023/08/24 09:30:56;;;;;;;3.65;3.35;;;28.00;99.90;;;;;;4099080;28;20059;-63
2023/08/24 09:33:02;;;;;;;3.78;3.28;;;28.00;99.90;;;;;;4095736;28;20126;-62
2023/08/24 09:35:08;;;;;;;4.32;3.90;;;28.20;99.90;;;;;;4096873;29;20410;-62
2023/08/24 09:37:15;;;;;;;3.83;3.53;;;28.30;99.90;;;;;;4096101;29;20459;-64
2023/08/24 09:39:17;;;;;;;4.03;3.63;;;28.40;99.90;;;;;;4095834;28;20086;-64
2023/08/24 09:41:18;;;;;;;3.33;3.03;;;28.50;99.90;;;;;;4096568;28;20039;-63
2023/08/24 09:43:20;;;;;;;3.92;3.30;;;28.70;99.90;;;;;;4096268;29;20043;-65
2023/08/24 09:45:21;;;;;;;4.18;3.72;;;28.60;99.90;;;;;;4096503;29;20023;-66
2023/08/24 09:47:22;;;;;;;5.03;3.53;;;28.50;99.90;;;;;;4095735;28;20086;-66
2023/08/24 09:49:26;;;;;;;5.13;3.70;;;28.40;99.90;;;;;;4095800;28;20449;-69
2023/08/24 09:51:27;;;;;;;5.47;4.20;;;28.30;99.90;;;;;;4104030;28;20554;-65
2023/08/24 09:53:32;;;;;;;6.15;3.90;;;28.20;99.90;;;;;;4093714;28;20420;-68
2023/08/24 09:55:36;;;;;;;5.80;3.10;;;28.20;99.90;;;;;;4095807;29;20027;-64
2023/08/24 09:57:38;;;;;;;4.10;3.70;;;28.40;99.90;;;;;;4096597;28;20066;-62
2023/08/24 09:59:41;;;;;;;4.40;3.85;;;28.30;99.90;;;;;;4101994;28;20428;-65
2023/08/24 10:01:44;;;;;;;5.70;3.55;;;28.20;99.90;;;;;;4106282;28;20096;-59
2023/08/24 10:03:46;;;;;;;3.88;3.58;;;28.20;99.90;;;;;;4104417;28;20047;-60
2023/08/24 10:05:58;;;;;;;4.55;3.35;;;28.20;99.90;;;;;;4096828;28;20039;-60
2023/08/24 10:07:59;;;;;;;4.05;3.20;;;28.40;99.90;;;;;;4095574;28;20435;-61
2023/08/24 10:10:07;;;;;;;6.25;3.22;;;28.50;99.90;;;;;;4097327;29;20031;-63
2023/08/24 10:12:09;;;;;;;3.92;3.53;;;28.60;99.90;;;;;;4096685;28;20110;-63
2023/08/24 10:14:13;;;;;;;4.70;3.40;;;28.80;99.90;;;;;;4103484;28;20097;-62
2023/08/24 10:16:15;;;;;;;4.30;3.40;;;28.90;99.90;;;;;;4110767;28;20089;-60
2023/08/24 10:18:19;;;;;;;4.72;2.90;;;28.80;99.90;;;;;;4102441;28;20130;-62
2023/08/24 10:20:20;;;;;;;4.85;3.50;;;28.70;99.90;;;;;;4107817;28;20404;-61
2023/08/24 10:22:21;;;;;;;5.35;3.00;;;28.50;99.90;;;;;;4101090;28;20429;-62
2023/08/24 10:24:23;;;;;;;3.08;2.78;;;28.70;99.90;;;;;;4095631;28;20027;-61
2023/08/24 10:26:26;;;;;;;4.90;3.42;;;28.80;99.90;;;;;;4095781;29;20103;-61